createdAt,value
2022-11-04T00:01:53.667Z,13.40
2022-11-04T00:04:22.045Z,12.75
2022-11-04T00:06:49.101Z,13.02
2022-11-04T00:09:20.779Z,10.40
2022-11-04T00:12:06.236Z,12.30
2022-11-04T00:14:33.192Z,10.38
2022-11-04T00:17:18.617Z,11.73
2022-11-04T00:20:22.306Z,9.60
2022-11-04T00:23:08.306Z,8.93
2022-11-04T00:25:53.795Z,12.18
2022-11-04T00:28:39.175Z,10.75
2022-11-04T00:31:25.581Z,12.52
2022-11-04T00:33:53.501Z,10.52
2022-11-04T00:36:20.366Z,10.27
2022-11-04T00:38:47.252Z,10.38
2022-11-04T00:41:26.844Z,12.52
2022-11-04T00:43:58.716Z,11.70
2022-11-04T00:46:26.261Z,10.63
2022-11-04T00:48:53.208Z,11.18
2022-11-04T00:51:21.562Z,13.48
2022-11-04T00:53:48.944Z,13.85
2022-11-04T00:56:15.758Z,16.40
2022-11-04T00:58:42.642Z,13.13
2022-11-04T01:01:12.643Z,13.07
2022-11-04T01:03:39.771Z,14.68
2022-11-04T01:06:07.051Z,13.48
2022-11-04T01:08:34.583Z,16.08
2022-11-04T01:11:04.769Z,13.50
2022-11-04T01:13:32.127Z,14.35
2022-11-04T01:16:03.737Z,12.95
2022-11-04T01:18:30.659Z,11.47
2022-11-04T01:21:04.611Z,25.80
2022-11-04T01:23:31.620Z,11.35
2022-11-04T01:25:58.463Z,14.68
2022-11-04T01:28:25.375Z,13.00
2022-11-04T01:30:52.365Z,10.75
2022-11-04T01:33:19.226Z,11.40
2022-11-04T01:35:46.141Z,9.98
2022-11-04T01:38:12.988Z,9.85
2022-11-04T01:40:40.195Z,9.88
2022-11-04T01:43:14.262Z,7.53
2022-11-04T01:45:41.451Z,8.48
2022-11-04T01:48:22.676Z,7.28
2022-11-04T01:50:49.502Z,8.20
2022-11-04T01:53:26.331Z,10.98
2022-11-04T01:55:57.886Z,9.90
2022-11-04T01:58:29.849Z,9.63
2022-11-04T02:00:56.873Z,8.52
2022-11-04T02:03:43.739Z,7.43
2022-11-04T02:06:10.588Z,7.20
2022-11-04T02:08:37.424Z,8.20
2022-11-04T02:11:04.643Z,8.48
2022-11-04T02:13:32.522Z,7.32
2022-11-04T02:16:18.725Z,7.20
2022-11-04T02:18:58.399Z,8.30
2022-11-04T02:21:31.515Z,7.10
2022-11-04T02:24:04.658Z,7.65
2022-11-04T02:26:50.508Z,6.13
2022-11-04T02:29:44.610Z,6.20
2022-11-04T02:32:29.956Z,9.23
2022-11-04T02:35:14.941Z,5.97
2022-11-04T02:38:19.682Z,6.38
2022-11-04T02:41:12.262Z,7.68
2022-11-04T02:43:57.741Z,7.13
2022-11-04T02:46:51.089Z,7.00
2022-11-04T02:49:25.235Z,6.20
2022-11-04T02:51:57.984Z,5.57
2022-11-04T02:54:33.436Z,7.10
2022-11-04T02:57:00.726Z,6.75
2022-11-04T02:59:50.546Z,9.75
2022-11-04T03:02:21.641Z,8.80
2022-11-04T03:04:50.533Z,12.02
2022-11-04T03:07:18.888Z,14.13
2022-11-04T03:09:49.232Z,14.73
2022-11-04T03:12:17.980Z,14.75
2022-11-04T03:14:51.041Z,16.58
2022-11-04T03:17:27.836Z,18.15
2022-11-04T03:19:59.084Z,18.27
2022-11-04T03:22:29.627Z,18.52
2022-11-04T03:24:56.472Z,19.60
2022-11-04T03:27:31.473Z,21.52
2022-11-04T03:30:07.958Z,19.65
2022-11-04T03:32:43.055Z,20.98
2022-11-04T03:35:10.184Z,18.63
2022-11-04T03:37:36.954Z,18.02
2022-11-04T03:40:03.991Z,19.95
2022-11-04T03:42:31.640Z,18.80
2022-11-04T03:44:58.546Z,19.77
2022-11-04T03:47:29.569Z,17.95
2022-11-04T03:50:02.768Z,21.02
2022-11-04T03:52:29.661Z,16.17
2022-11-04T03:54:56.457Z,15.05
2022-11-04T03:57:35.318Z,17.00
2022-11-04T04:00:10.886Z,17.88
2022-11-04T04:02:56.099Z,16.00
2022-11-04T04:05:29.855Z,15.35
2022-11-04T04:08:06.089Z,16.55
2022-11-04T04:11:04.779Z,14.57
2022-11-04T04:13:31.617Z,15.48
2022-11-04T04:16:03.478Z,14.93
2022-11-04T04:18:44.691Z,14.05
2022-11-04T04:21:15.059Z,15.90
2022-11-04T04:24:00.461Z,16.63
2022-11-04T04:26:45.923Z,17.38
2022-11-04T04:29:12.781Z,14.27
2022-11-04T04:31:51.522Z,17.35
2022-11-04T04:34:29.005Z,14.55
2022-11-04T04:37:00.536Z,12.80
2022-11-04T04:39:50.793Z,11.97
2022-11-04T04:42:36.801Z,16.67
2022-11-04T04:45:05.977Z,12.48
2022-11-04T04:47:41.439Z,14.90
2022-11-04T04:50:08.663Z,11.48
2022-11-04T04:52:38.486Z,14.48
2022-11-04T04:55:05.810Z,14.82
2022-11-04T04:57:32.690Z,13.75
2022-11-04T04:59:59.463Z,15.57
2022-11-04T05:02:26.387Z,15.30
2022-11-04T05:04:53.280Z,13.02
2022-11-04T05:07:20.124Z,11.88
2022-11-04T05:09:47.062Z,15.48
2022-11-04T05:12:13.962Z,16.13
2022-11-04T05:14:40.937Z,13.88
2022-11-04T05:17:07.899Z,13.05
2022-11-04T05:19:34.780Z,13.68
2022-11-04T05:22:01.613Z,14.43
2022-11-04T05:24:28.390Z,16.45
2022-11-04T05:26:55.218Z,15.40
2022-11-04T05:29:22.203Z,16.88
2022-11-04T05:31:49.034Z,15.77
2022-11-04T05:34:15.922Z,18.27
2022-11-04T05:36:42.796Z,21.05
2022-11-04T05:39:12.644Z,16.25
2022-11-04T05:41:39.406Z,21.73
2022-11-04T05:44:08.448Z,21.25
2022-11-04T05:46:35.254Z,25.85
2022-11-04T05:49:02.161Z,25.45
2022-11-04T05:51:29.029Z,22.92
2022-11-04T05:53:55.853Z,21.90
2022-11-04T05:56:22.712Z,24.58
2022-11-04T05:58:49.580Z,22.02
2022-11-04T06:01:35.881Z,20.55
2022-11-04T06:04:03.644Z,23.55
2022-11-04T06:06:32.573Z,20.63
2022-11-04T06:09:00.377Z,22.27
2022-11-04T06:11:28.237Z,26.10
2022-11-04T06:13:55.610Z,23.20
2022-11-04T06:16:22.640Z,24.58
2022-11-04T06:18:49.601Z,21.50
2022-11-04T06:21:16.325Z,24.92
2022-11-04T06:23:43.309Z,24.90
2022-11-04T06:26:10.745Z,23.80
2022-11-04T06:28:37.641Z,22.85
2022-11-04T06:31:05.143Z,22.52
2022-11-04T06:33:36.487Z,22.83
2022-11-04T06:36:05.232Z,23.50
2022-11-04T06:38:33.090Z,22.42
2022-11-04T06:40:59.925Z,20.58
2022-11-04T06:43:26.726Z,20.23
2022-11-04T06:45:57.277Z,21.85
2022-11-04T06:48:24.372Z,23.55
2022-11-04T06:50:51.308Z,25.40
2022-11-04T06:53:18.179Z,18.65
2022-11-04T06:55:44.956Z,20.92
2022-11-04T06:58:11.837Z,18.77
2022-11-04T07:00:38.756Z,18.77
2022-11-04T07:03:05.816Z,18.55
2022-11-04T07:05:33.828Z,17.05
2022-11-04T07:08:00.667Z,18.90
2022-11-04T07:10:27.530Z,15.10
2022-11-04T07:12:55.121Z,16.92
2022-11-04T07:15:27.134Z,17.88
2022-11-04T07:17:54.412Z,17.50
2022-11-04T07:20:21.216Z,18.15
2022-11-04T07:22:48.057Z,19.25
2022-11-04T07:25:15.018Z,16.63
2022-11-04T07:27:42.307Z,19.52
2022-11-04T07:30:09.661Z,20.80
2022-11-04T07:32:36.494Z,24.63
2022-11-04T07:35:03.473Z,17.17
2022-11-04T07:37:30.304Z,16.02
2022-11-04T07:39:57.136Z,17.20
2022-11-04T07:42:24.075Z,17.40
2022-11-04T07:44:54.690Z,14.88
2022-11-04T07:47:22.101Z,17.30
2022-11-04T07:49:48.971Z,15.95
2022-11-04T07:52:15.904Z,16.10
2022-11-04T07:54:42.748Z,15.80
2022-11-04T07:57:09.647Z,18.30
2022-11-04T07:59:36.438Z,17.77
2022-11-04T08:02:03.459Z,17.63
2022-11-04T08:04:30.301Z,17.55
2022-11-04T08:06:57.131Z,15.68
2022-11-04T08:09:24.337Z,17.15
2022-11-04T08:11:51.214Z,17.13
2022-11-04T08:14:17.995Z,16.67
2022-11-04T08:16:44.977Z,18.00
2022-11-04T08:19:11.807Z,16.38
2022-11-04T08:21:38.772Z,17.63
2022-11-04T08:24:06.071Z,16.13
2022-11-04T08:26:33.002Z,18.40
2022-11-04T08:29:02.432Z,17.15
2022-11-04T08:31:30.669Z,20.23
2022-11-04T08:33:57.757Z,18.80
2022-11-04T08:36:26.725Z,19.33
2022-11-04T08:38:53.893Z,20.67
2022-11-04T08:41:23.470Z,19.02
2022-11-04T08:43:50.326Z,19.33
2022-11-04T08:46:17.260Z,18.63
2022-11-04T08:48:44.267Z,19.00
2022-11-04T08:51:14.158Z,17.33
2022-11-04T08:53:40.980Z,18.60
2022-11-04T08:56:12.613Z,16.00
2022-11-04T08:58:39.754Z,12.90
2022-11-04T09:01:06.954Z,16.77
2022-11-04T09:03:34.916Z,15.57
2022-11-04T09:06:01.864Z,18.65
2022-11-04T09:08:28.789Z,16.90
2022-11-04T09:10:55.715Z,12.82
2022-11-04T09:13:22.579Z,13.63
2022-11-04T09:15:49.389Z,12.20
2022-11-04T09:18:16.329Z,11.68
2022-11-04T09:20:43.245Z,14.50
2022-11-04T09:23:10.481Z,9.75
2022-11-04T09:25:37.759Z,12.07
2022-11-04T09:28:04.988Z,12.73
2022-11-04T09:30:32.157Z,12.95
2022-11-04T09:32:59.263Z,16.92
2022-11-04T09:35:27.678Z,14.07
2022-11-04T09:37:54.887Z,11.63
2022-11-04T09:40:23.704Z,14.55
2022-11-04T09:43:13.654Z,18.90
2022-11-04T09:45:41.469Z,12.13
2022-11-04T09:48:12.586Z,11.07
2022-11-04T09:50:50.931Z,12.52
2022-11-04T09:53:18.746Z,16.20
2022-11-04T09:56:22.884Z,18.63
2022-11-04T09:58:50.501Z,12.35
2022-11-04T10:01:23.533Z,11.82
2022-11-04T10:03:56.800Z,9.55
2022-11-04T10:06:30.631Z,10.25
2022-11-04T10:09:00.559Z,15.20
2022-11-04T10:11:45.513Z,12.65
2022-11-04T10:14:35.581Z,10.57
2022-11-04T10:17:22.968Z,14.55
2022-11-04T10:20:16.473Z,13.13
2022-11-04T10:23:02.501Z,11.23
2022-11-04T10:25:37.161Z,14.80
2022-11-04T10:28:04.219Z,11.65
2022-11-04T10:30:32.103Z,11.90
2022-11-04T10:33:05.033Z,11.73
2022-11-04T10:35:45.485Z,14.25
2022-11-04T10:38:22.687Z,12.55
2022-11-04T10:40:51.548Z,12.63
2022-11-04T10:43:36.409Z,10.65
2022-11-04T10:46:39.217Z,10.68
2022-11-04T10:49:54.760Z,11.63
2022-11-04T10:52:29.056Z,10.70
2022-11-04T10:54:56.510Z,11.43
2022-11-04T10:57:25.183Z,14.57
2022-11-04T10:59:55.617Z,12.40
2022-11-04T11:02:49.431Z,13.57
2022-11-04T11:05:19.236Z,14.70
2022-11-04T11:07:50.891Z,13.90
2022-11-04T11:10:22.994Z,12.98
2022-11-04T11:13:02.197Z,13.70
2022-11-04T11:15:32.426Z,13.75
2022-11-04T11:18:08.130Z,13.20
2022-11-04T11:20:37.781Z,13.05
2022-11-04T11:23:10.305Z,12.27
2022-11-04T11:25:45.611Z,14.02
2022-11-04T11:28:23.139Z,10.65
2022-11-04T11:30:52.896Z,14.80
2022-11-04T11:33:32.125Z,17.70
2022-11-04T11:36:13.059Z,10.95
2022-11-04T11:38:51.694Z,13.52
2022-11-04T11:41:25.201Z,13.80
2022-11-04T11:43:53.640Z,15.13
2022-11-04T11:46:24.653Z,15.13
2022-11-04T11:48:53.052Z,17.98
2022-11-04T11:51:27.553Z,16.17
2022-11-04T11:54:33.884Z,13.50
2022-11-04T11:57:24.955Z,12.82
2022-11-04T12:03:03.585Z,11.82
2022-11-04T12:11:37.143Z,13.10
2022-11-04T12:14:13.791Z,11.27
2022-11-04T12:16:47.944Z,10.82
2022-11-04T12:19:32.098Z,12.15
2022-11-04T12:22:27.027Z,15.05
2022-11-04T12:25:17.667Z,12.80
2022-11-04T12:27:52.461Z,12.05
2022-11-04T12:30:29.824Z,10.38
2022-11-04T12:33:28.325Z,11.57
2022-11-04T12:36:03.772Z,9.23
2022-11-04T12:38:41.366Z,12.20
2022-11-04T12:42:18.942Z,7.95
2022-11-04T12:44:58.722Z,10.98
2022-11-04T12:47:42.965Z,9.15
2022-11-04T12:50:09.912Z,8.50
2022-11-04T12:52:49.766Z,8.02
2022-11-04T12:55:43.797Z,10.05
2022-11-04T12:58:35.235Z,8.48
2022-11-04T13:01:12.423Z,8.50
2022-11-04T13:03:52.694Z,9.15
2022-11-04T13:06:42.698Z,9.95
2022-11-04T13:09:32.224Z,11.57
2022-11-04T13:12:07.224Z,9.00
2022-11-04T13:14:45.356Z,9.15
2022-11-04T13:17:13.971Z,8.65
2022-11-04T13:19:48.666Z,9.57
2022-11-04T13:22:32.866Z,7.97
2022-11-04T13:25:06.793Z,7.85
2022-11-04T13:27:47.335Z,8.20
2022-11-04T13:30:31.440Z,6.53
2022-11-04T13:33:36.161Z,8.27
2022-11-04T13:36:27.597Z,9.02
2022-11-04T13:38:55.185Z,7.03
2022-11-04T13:42:03.832Z,6.57
2022-11-04T13:44:39.119Z,5.05
2022-11-04T13:47:22.191Z,6.25
2022-11-04T13:49:50.961Z,9.27
2022-11-04T13:52:18.006Z,6.78
2022-11-04T13:54:52.861Z,8.00
2022-11-04T13:57:21.231Z,7.63
2022-11-04T14:00:24.382Z,6.47
2022-11-04T14:03:00.059Z,7.38
2022-11-04T14:05:32.255Z,8.75
2022-11-04T14:08:02.244Z,8.95
2022-11-04T14:10:47.958Z,5.57
2022-11-04T14:13:29.988Z,7.50
2022-11-04T14:16:09.497Z,6.90
2022-11-04T14:18:40.687Z,6.38
2022-11-04T14:21:14.478Z,6.78
2022-11-04T14:23:43.901Z,6.38
2022-11-04T14:26:16.932Z,8.30
2022-11-04T14:29:00.396Z,7.10
2022-11-04T14:31:40.678Z,6.60
2022-11-04T14:34:08.093Z,8.80
2022-11-04T14:36:40.998Z,7.60
2022-11-04T14:39:10.974Z,6.53
2022-11-04T14:41:40.936Z,5.22
2022-11-04T14:44:08.759Z,6.68
2022-11-04T14:46:40.275Z,6.97
2022-11-04T14:49:07.202Z,6.03
2022-11-04T14:51:40.233Z,5.05
2022-11-04T14:54:18.884Z,5.95
2022-11-04T14:56:46.973Z,7.85
2022-11-04T14:59:24.748Z,6.45
2022-11-04T15:01:52.542Z,7.47
2022-11-04T15:04:30.836Z,8.85
2022-11-04T15:07:02.139Z,8.10
2022-11-04T15:09:32.797Z,8.75
2022-11-04T15:12:29.878Z,7.43
2022-11-04T15:14:57.210Z,8.18
2022-11-04T15:17:26.798Z,9.07
2022-11-04T15:19:54.751Z,6.55
2022-11-04T15:22:21.633Z,6.82
2022-11-04T15:24:50.684Z,9.77
2022-11-04T15:27:18.727Z,6.38
2022-11-04T15:29:58.946Z,5.25
2022-11-04T15:32:25.957Z,7.03
2022-11-04T15:34:53.721Z,7.40
2022-11-04T15:37:22.015Z,7.45
2022-11-04T15:39:50.105Z,8.38
2022-11-04T15:42:37.168Z,4.90
2022-11-04T15:45:40.333Z,7.43
2022-11-04T15:48:30.073Z,6.35
2022-11-04T15:51:21.448Z,7.03
2022-11-04T15:53:48.410Z,5.00
2022-11-04T15:56:19.919Z,7.72
2022-11-04T15:58:46.814Z,7.07
2022-11-04T16:01:17.817Z,6.78
2022-11-04T16:03:53.625Z,7.30
2022-11-04T16:06:35.571Z,8.18
2022-11-04T16:09:05.402Z,10.07
2022-11-04T16:11:32.333Z,7.10
2022-11-04T16:14:25.208Z,6.70
2022-11-04T16:19:23.489Z,10.27
2022-11-04T16:22:09.259Z,8.57
2022-11-04T16:24:40.088Z,7.57
2022-11-04T16:27:10.799Z,7.35
2022-11-04T16:29:37.764Z,8.38
2022-11-04T16:32:09.021Z,9.05
2022-11-04T16:34:36.061Z,9.85
2022-11-04T16:37:02.962Z,9.73
2022-11-04T16:39:30.582Z,10.75
2022-11-04T16:41:57.459Z,14.98
2022-11-04T16:44:24.885Z,9.50
2022-11-04T16:46:52.094Z,9.40
2022-11-04T16:49:20.613Z,7.18
2022-11-04T16:51:49.646Z,7.75
2022-11-04T16:54:16.554Z,7.65
2022-11-04T16:56:44.056Z,8.60
2022-11-04T16:59:11.671Z,10.85
2022-11-04T17:01:40.097Z,12.80
2022-11-04T17:04:07.553Z,12.25
2022-11-04T17:06:34.977Z,12.25
2022-11-04T17:09:01.952Z,11.57
2022-11-04T17:11:31.836Z,10.55
2022-11-04T17:13:58.795Z,11.02
2022-11-04T17:16:25.716Z,10.32
2022-11-04T17:18:52.550Z,11.55
2022-11-04T17:21:20.303Z,9.80
2022-11-04T17:23:47.723Z,10.95
2022-11-04T17:26:14.821Z,10.43
2022-11-04T17:28:42.087Z,11.93
2022-11-04T17:31:12.113Z,7.50
2022-11-04T17:33:38.910Z,9.60
2022-11-04T17:36:07.870Z,7.47
2022-11-04T17:38:34.887Z,8.63
2022-11-04T17:41:20.223Z,10.38
2022-11-04T17:44:02.288Z,9.18
2022-11-04T17:46:35.229Z,11.85
2022-11-04T17:49:03.073Z,12.30
2022-11-04T17:51:30.500Z,19.15
2022-11-04T17:53:57.375Z,21.40
2022-11-04T17:56:24.469Z,20.35
2022-11-04T17:58:51.463Z,19.30
2022-11-04T18:01:20.307Z,18.92
2022-11-04T18:03:47.390Z,17.30
2022-11-04T18:06:14.313Z,19.15
2022-11-04T18:08:41.112Z,17.75
2022-11-04T18:11:09.708Z,14.63
2022-11-04T18:13:36.720Z,14.65
2022-11-04T18:16:10.990Z,15.05
2022-11-04T18:18:37.834Z,16.05
2022-11-04T18:21:05.900Z,18.20
2022-11-04T18:23:32.695Z,14.52
2022-11-04T18:25:59.657Z,19.58
2022-11-04T18:28:26.746Z,19.75
2022-11-04T18:30:53.639Z,19.08
2022-11-04T18:33:20.490Z,26.98
2022-11-04T18:35:47.442Z,30.02
2022-11-04T18:38:14.331Z,22.10
2022-11-04T18:40:41.176Z,24.42
2022-11-04T18:43:09.289Z,21.20
2022-11-04T18:45:36.690Z,20.55
2022-11-04T18:48:03.772Z,21.55
2022-11-04T18:50:31.585Z,19.42
2022-11-04T18:52:58.409Z,19.05
2022-11-04T18:55:25.323Z,15.13
2022-11-04T18:57:55.489Z,14.52
2022-11-04T19:00:22.624Z,15.82
2022-11-04T19:02:49.720Z,15.52
2022-11-04T19:05:16.907Z,14.93
2022-11-04T19:07:44.131Z,18.75
2022-11-04T19:10:11.878Z,16.25
2022-11-04T19:12:57.839Z,18.25
2022-11-04T19:15:25.047Z,18.45
2022-11-04T19:17:51.892Z,19.15
2022-11-04T19:20:18.871Z,20.30
2022-11-04T19:22:45.930Z,26.02
2022-11-04T19:25:12.950Z,27.80
2022-11-04T19:27:39.880Z,32.40
2022-11-04T19:30:07.241Z,36.97
2022-11-04T19:32:34.082Z,42.28
2022-11-04T19:35:01.205Z,52.58
2022-11-04T19:37:28.212Z,56.00
2022-11-04T19:39:55.096Z,77.30
2022-11-04T19:42:40.245Z,65.88
2022-11-04T19:45:07.617Z,72.55
2022-11-04T19:47:34.494Z,72.38
2022-11-04T19:50:01.552Z,50.05
2022-11-04T19:52:28.402Z,32.80
2022-11-04T19:54:55.244Z,25.05
2022-11-04T19:57:22.102Z,29.38
2022-11-04T19:59:49.313Z,20.50
2022-11-04T20:02:16.384Z,21.50
2022-11-04T20:04:43.465Z,21.73
2022-11-04T20:07:10.453Z,30.23
2022-11-04T20:09:37.418Z,32.63
2022-11-04T20:12:22.722Z,32.60
2022-11-04T20:14:49.615Z,32.42
2022-11-04T20:17:16.409Z,25.33
2022-11-04T20:19:43.210Z,30.70
2022-11-04T20:22:10.078Z,27.05
2022-11-04T20:24:36.984Z,26.13
2022-11-04T20:27:03.879Z,27.83
2022-11-04T20:29:30.783Z,33.17
2022-11-04T20:31:58.434Z,37.45
2022-11-04T20:34:28.808Z,39.15
2022-11-04T20:37:00.436Z,36.78
2022-11-04T20:39:27.361Z,29.10
2022-11-04T20:41:54.304Z,32.85
2022-11-04T20:44:21.953Z,34.03
2022-11-04T20:46:48.866Z,36.70
2022-11-04T20:49:15.756Z,43.60
2022-11-04T20:51:54.921Z,46.55
2022-11-04T20:54:22.529Z,53.90
2022-11-04T20:56:49.412Z,39.17
2022-11-04T20:59:18.248Z,36.22
2022-11-04T21:01:46.319Z,30.73
2022-11-04T21:04:15.180Z,34.55
2022-11-04T21:06:42.160Z,34.17
2022-11-04T21:09:09.883Z,34.17
2022-11-04T21:11:38.954Z,36.80
2022-11-04T21:14:06.755Z,33.65
2022-11-04T21:16:34.633Z,32.08
2022-11-04T21:19:02.169Z,34.67
2022-11-04T21:21:33.140Z,29.85
2022-11-04T21:24:04.089Z,26.33
2022-11-04T21:26:34.025Z,32.20
2022-11-04T21:29:02.583Z,29.88
2022-11-04T21:31:30.972Z,25.30
2022-11-04T21:33:57.961Z,29.10
2022-11-04T21:36:25.006Z,26.90
2022-11-04T21:38:51.897Z,27.20
2022-11-04T21:41:23.127Z,33.63
2022-11-04T21:43:57.859Z,28.20
2022-11-04T21:46:25.205Z,24.80
2022-11-04T21:48:52.136Z,24.00
2022-11-04T21:51:20.930Z,24.90
2022-11-04T21:53:47.862Z,27.95
2022-11-04T21:56:28.434Z,23.73
2022-11-04T21:58:55.631Z,22.98
2022-11-04T22:01:25.529Z,23.63
2022-11-04T22:03:53.798Z,22.23
2022-11-04T22:06:20.723Z,22.50
2022-11-04T22:08:49.360Z,23.55
2022-11-04T22:11:27.622Z,20.50
2022-11-04T22:13:58.350Z,20.80
2022-11-04T22:16:33.389Z,20.73
2022-11-04T22:19:02.559Z,23.98
2022-11-04T22:21:30.949Z,23.52
2022-11-04T22:23:57.967Z,24.92
2022-11-04T22:26:27.002Z,23.63
2022-11-04T22:28:54.120Z,21.83
2022-11-04T22:31:32.053Z,24.50
2022-11-04T22:33:59.833Z,22.65
2022-11-04T22:36:27.316Z,25.85
2022-11-04T22:38:54.318Z,24.35
2022-11-04T22:41:23.159Z,20.25
2022-11-04T22:43:50.060Z,20.50
2022-11-04T22:46:19.421Z,22.73
2022-11-04T22:48:46.385Z,23.33
2022-11-04T22:51:13.510Z,18.42
2022-11-04T22:53:40.613Z,25.60
2022-11-04T22:56:08.600Z,18.63
2022-11-04T22:58:35.464Z,21.60
2022-11-04T23:01:08.208Z,25.65
2022-11-04T23:03:35.180Z,18.30
2022-11-04T23:06:03.114Z,21.70
2022-11-04T23:08:30.735Z,22.50
2022-11-04T23:11:17.860Z,19.27
2022-11-04T23:14:13.202Z,19.15
2022-11-04T23:17:07.229Z,19.25
2022-11-04T23:19:34.169Z,19.48
2022-11-04T23:22:19.523Z,18.90
2022-11-04T23:25:04.755Z,19.50
2022-11-04T23:27:54.187Z,18.15
2022-11-04T23:30:21.146Z,20.38
2022-11-04T23:32:49.175Z,21.98
2022-11-04T23:35:34.998Z,18.38
2022-11-04T23:38:01.892Z,17.95
2022-11-04T23:40:29.411Z,17.35
2022-11-04T23:42:56.285Z,19.83
2022-11-04T23:45:41.534Z,21.77
2022-11-04T23:48:30.758Z,22.73
2022-11-04T23:51:17.814Z,20.90
2022-11-04T23:54:03.190Z,21.38
2022-11-04T23:56:48.557Z,21.48
2022-11-04T23:59:35.350Z,20.38
